Time;durP1;ratioP1;P1;durP2;ratioP2;P2;SDS_P1;SDS_P2;PMS_P1;PMS_P2;Temp;Humidity;BMP_temperature;BMP_pressure;BME280_temperature;BME280_humidity;BME280_pressure;Samples;Min_cycle;Max_cycle;Signal;HPM_P1;HPM_P2
2022/09/07 00:00:38;;;;;;;1999.90;999.90;;;18.30;99.90;;;;;;6683442;88;20187;-77
2022/09/07 00:10:38;;;;;;;1999.90;999.90;;;18.00;99.90;;;;;;6699716;88;20188;-79
2022/09/07 00:20:39;;;;;;;1999.90;999.90;;;18.00;99.90;;;;;;6705139;88;20205;-78
2022/09/07 00:30:41;;;;;;;1999.90;999.90;;;18.00;99.90;;;;;;6683231;88;20293;-78
2022/09/07 00:40:41;;;;;;;1999.90;999.90;;;18.00;99.90;;;;;;6695601;88;20345;-78
2022/09/07 00:51:07;;;;;;;1999.90;999.90;;;18.00;99.90;;;;;;6674098;77;20184;-78
2022/09/07 01:01:09;;;;;;;1999.90;999.90;;;18.00;99.90;;;;;;6654818;88;20635;-78
2022/09/07 01:11:11;;;;;;;1999.90;999.90;;;18.10;99.90;;;;;;6649654;88;20246;-77
2022/09/07 01:21:47;;;;;;;1999.90;999.90;;;18.10;99.90;;;;;;6675692;88;21031;-77
2022/09/07 01:32:02;;;;;;;1999.90;999.90;;;18.00;99.90;;;;;;6651408;88;20193;-77
2022/09/07 01:42:09;;;;;;;1999.90;999.90;;;17.90;99.90;;;;;;6657158;88;20197;-77
2022/09/07 01:52:25;;;;;;;1999.90;999.90;;;18.00;99.90;;;;;;6660037;89;20199;-82
2022/09/07 02:02:31;;;;;;;1999.90;999.90;;;17.80;99.90;;;;;;6658697;89;20237;-77
2022/09/07 02:12:48;;;;;;;1999.90;999.90;;;17.80;99.90;;;;;;6660416;88;20564;-77
2022/09/07 02:22:56;;;;;;;1999.90;999.90;;;17.80;99.90;;;;;;6653262;89;20309;-78
2022/09/07 02:32:56;;;;;;;1999.90;999.90;;;17.80;99.90;;;;;;6662386;88;20413;-77
2022/09/07 02:43:01;;;;;;;1999.90;999.90;;;17.80;99.90;;;;;;6651796;89;20201;-77
2022/09/07 02:53:33;;;;;;;1999.90;999.90;;;17.80;99.90;;;;;;6655498;89;20250;-77
2022/09/07 03:04:18;;;;;;;1999.90;999.90;;;17.80;99.90;;;;;;6653504;88;20198;-77
2022/09/07 03:14:21;;;;;;;1999.90;999.90;;;17.60;99.90;;;;;;6648558;89;20283;-77
2022/09/07 03:24:22;;;;;;;1999.90;999.90;;;17.60;99.90;;;;;;6645100;88;20304;-77
2022/09/07 03:34:22;;;;;;;1999.90;999.90;;;17.50;99.90;;;;;;6662487;88;20318;-77
2022/09/07 03:44:23;;;;;;;1999.90;999.90;;;17.40;99.90;;;;;;6658781;88;20217;-77
2022/09/07 03:54:23;;;;;;;1999.90;999.90;;;17.30;99.90;;;;;;6650522;88;20204;-77
2022/09/07 04:04:24;;;;;;;1999.90;999.90;;;17.40;99.90;;;;;;6649065;88;20199;-77
2022/09/07 04:14:24;;;;;;;1999.90;999.90;;;17.20;99.90;;;;;;6656737;88;20625;-77
2022/09/07 04:24:25;;;;;;;1999.90;999.90;;;17.20;99.90;;;;;;6655568;88;20204;-78
2022/09/07 04:34:26;;;;;;;1999.90;999.90;;;17.10;99.90;;;;;;6657779;88;20247;-78
2022/09/07 04:44:26;;;;;;;1999.90;999.90;;;16.90;99.90;;;;;;6652675;89;20233;-78
2022/09/07 04:54:27;;;;;;;1999.90;999.90;;;17.00;99.90;;;;;;6653356;88;20426;-78
2022/09/07 05:04:27;;;;;;;1999.90;999.90;;;17.00;99.90;;;;;;6652711;88;20293;-78
2022/09/07 05:14:28;;;;;;;1999.90;999.90;;;16.80;99.90;;;;;;6662909;88;20337;-78
2022/09/07 05:24:28;;;;;;;1999.90;999.90;;;16.80;99.90;;;;;;6657530;88;20184;-78
2022/09/07 05:34:29;;;;;;;1999.90;999.90;;;16.70;99.90;;;;;;6649005;88;20506;-76
2022/09/07 05:44:30;;;;;;;1999.90;999.90;;;16.60;99.90;;;;;;6655172;88;20910;-77
2022/09/07 05:54:31;;;;;;;1999.90;999.90;;;16.60;99.90;;;;;;6652784;88;20255;-78
2022/09/07 06:04:32;;;;;;;1999.90;999.90;;;16.60;99.90;;;;;;6650831;88;20241;-78
2022/09/07 06:14:32;;;;;;;1999.90;999.90;;;16.70;99.90;;;;;;6653143;88;20658;-77
2022/09/07 06:24:33;;;;;;;1999.90;999.90;;;16.90;99.90;;;;;;6653800;88;20199;-78
2022/09/07 06:34:33;;;;;;;1999.90;999.90;;;17.10;99.90;;;;;;6653894;88;20205;-77
2022/09/07 06:44:35;;;;;;;1999.90;999.90;;;17.50;99.90;;;;;;6652057;88;20216;-77
2022/09/07 06:54:36;;;;;;;1999.90;999.90;;;18.00;99.90;;;;;;6742813;78;20203;-75
2022/09/07 07:04:36;;;;;;;1999.90;999.90;;;18.40;99.90;;;;;;6760619;87;20767;-76
2022/09/07 07:14:37;;;;;;;1999.90;999.90;;;18.70;99.90;;;;;;6754191;87;20572;-76
2022/09/07 07:24:37;;;;;;;1999.90;999.90;;;19.10;99.90;;;;;;6751355;87;20205;-76
2022/09/07 07:34:38;;;;;;;1999.90;999.90;;;19.60;99.90;;;;;;6750820;87;20570;-76
2022/09/07 07:44:39;;;;;;;1999.90;999.90;;;19.80;99.90;;;;;;6753533;87;20204;-73
2022/09/07 07:54:39;;;;;;;1999.90;999.90;;;20.40;99.90;;;;;;6758591;87;20226;-76
2022/09/07 08:04:40;;;;;;;1999.90;999.90;;;20.80;99.90;;;;;;6751318;87;20207;-76
2022/09/07 08:14:40;;;;;;;1999.90;999.90;;;21.60;99.90;;;;;;6746569;87;20298;-75
2022/09/07 08:24:41;;;;;;;1999.90;999.90;;;22.60;99.90;;;;;;6750204;87;20189;-75
2022/09/07 08:34:41;;;;;;;1999.90;999.90;;;22.30;99.90;;;;;;6750970;87;20489;-74
2022/09/07 08:44:52;;;;;;;1999.90;999.90;;;23.40;99.90;;;;;;6753159;87;20409;-75
2022/09/07 08:55:03;;;;;;;1999.90;999.90;;;23.20;99.90;;;;;;6701187;87;20195;-76
2022/09/07 09:05:13;;;;;;;1999.90;999.90;;;23.40;99.90;;;;;;6685281;88;20275;-76
2022/09/07 09:15:30;;;;;;;1999.90;999.90;;;24.50;99.90;;;;;;6682305;87;20195;-76
2022/09/07 09:25:33;;;;;;;1999.90;999.90;;;25.20;99.90;;;;;;6687107;87;20186;-75
2022/09/07 09:35:35;;;;;;;1999.90;999.90;;;25.40;99.90;;;;;;6689629;88;20200;-76
2022/09/07 09:45:43;;;;;;;1999.90;999.90;;;26.40;99.90;;;;;;6689162;88;20203;-75
2022/09/07 09:55:50;;;;;;;1999.90;999.90;;;28.00;99.90;;;;;;6686247;87;20199;-75
2022/09/07 10:05:52;;;;;;;1999.90;999.90;;;26.60;99.90;;;;;;6688796;88;20788;-76
2022/09/07 10:15:55;;;;;;;1999.90;999.90;;;27.20;99.90;;;;;;6685266;87;20205;-76
2022/09/07 10:25:56;;;;;;;1999.90;999.90;;;27.70;99.90;;;;;;6695159;87;20265;-76
2022/09/07 10:36:26;;;;;;;1999.90;999.90;;;27.70;99.90;;;;;;6685225;87;20208;-75
2022/09/07 10:46:46;;;;;;;1999.90;999.90;;;27.80;99.90;;;;;;6684124;88;20191;-76
2022/09/07 10:56:58;;;;;;;1999.90;999.90;;;26.70;99.90;;;;;;6685986;87;20598;-76
2022/09/07 11:07:16;;;;;;;1999.90;999.90;;;26.40;99.90;;;;;;6683645;88;20195;-77
2022/09/07 11:17:22;;;;;;;1999.90;999.90;;;25.80;99.90;;;;;;6686069;88;20234;-77
2022/09/07 11:27:34;;;;;;;1999.90;999.90;;;27.40;99.90;;;;;;6689119;87;20273;-74
2022/09/07 11:37:42;;;;;;;1999.90;999.90;;;29.00;99.90;;;;;;6701332;88;20179;-76
2022/09/07 11:48:02;;;;;;;1999.90;999.90;;;30.00;99.90;;;;;;6679808;88;20200;-75
2022/09/07 11:58:20;;;;;;;1999.90;999.90;;;29.60;99.90;;;;;;6683737;88;20229;-75
2022/09/07 12:08:36;;;;;;;1999.90;999.90;;;28.30;99.90;;;;;;6683125;87;20303;-78
2022/09/07 12:19:05;;;;;;;1999.90;999.90;;;28.30;99.90;;;;;;6686898;87;20262;-76
2022/09/07 12:29:19;;;;;;;1999.90;999.90;;;28.60;99.90;;;;;;6682347;88;20233;-76
2022/09/07 12:39:23;;;;;;;1999.90;999.90;;;29.70;99.90;;;;;;6681785;87;20677;-75
2022/09/07 12:59:54;;;;;;;1999.90;999.90;;;30.70;99.90;;;;;;6652115;89;20895;-77
2022/09/07 13:09:59;;;;;;;1999.90;999.90;;;30.70;98.10;;;;;;6650445;88;20233;-80
2022/09/07 13:20:00;;;;;;;1999.90;999.90;;;29.70;99.90;;;;;;6633384;89;20189;-77
2022/09/07 13:30:18;;;;;;;1999.90;999.90;;;29.70;98.50;;;;;;6629745;89;20234;-78
2022/09/07 13:40:23;;;;;;;1999.90;999.90;;;28.40;99.70;;;;;;6633550;89;20177;-78
2022/09/07 13:51:09;;;;;;;1999.90;999.90;;;29.10;99.90;;;;;;6633128;88;20204;-76
2022/09/07 14:01:20;;;;;;;1999.90;999.90;;;30.00;99.20;;;;;;6634444;88;20204;-79
2022/09/07 14:11:24;;;;;;;1999.90;999.90;;;31.20;95.30;;;;;;6632193;88;20176;-78
2022/09/07 14:21:24;;;;;;;1999.90;999.90;;;30.70;95.10;;;;;;6632705;88;20300;-80
2022/09/07 14:31:25;;;;;;;1999.90;999.90;;;31.40;95.10;;;;;;6631372;89;20312;-80
2022/09/07 14:41:31;;;;;;;1999.90;999.90;;;28.80;92.60;;;;;;6635934;88;20190;-78
2022/09/07 14:51:33;;;;;;;1999.90;999.90;;;27.80;92.20;;;;;;6634587;88;20294;-78
2022/09/07 15:01:34;;;;;;;1999.90;999.90;;;27.50;91.60;;;;;;6635751;88;20209;-80
2022/09/07 15:11:36;;;;;;;1999.90;999.90;;;27.90;90.80;;;;;;6635792;88;20644;-78
2022/09/07 15:21:36;;;;;;;1999.90;999.90;;;27.90;91.90;;;;;;6636326;88;20217;-79
2022/09/07 15:31:37;;;;;;;1999.90;999.90;;;27.90;92.10;;;;;;6635967;89;20884;-78
2022/09/07 15:41:38;;;;;;;1999.90;999.90;;;27.40;92.80;;;;;;6637082;88;20232;-78
2022/09/07 15:51:42;;;;;;;1999.90;999.90;;;26.90;94.40;;;;;;6640005;89;20371;-79
2022/09/07 16:01:42;;;;;;;1999.90;999.90;;;27.10;94.60;;;;;;6636997;89;20173;-78
2022/09/07 16:11:43;;;;;;;1999.90;999.90;;;26.70;96.60;;;;;;6634283;89;20193;-77
2022/09/07 16:21:43;;;;;;;1999.90;999.90;;;26.50;96.00;;;;;;6635379;89;20290;-79
2022/09/07 16:31:44;;;;;;;1999.90;999.90;;;26.30;95.50;;;;;;6644056;88;20325;-80
2022/09/07 16:41:44;;;;;;;1999.90;999.90;;;26.30;95.00;;;;;;6646195;88;20202;-78
2022/09/07 16:51:45;;;;;;;1999.90;999.90;;;26.30;95.40;;;;;;6654990;88;20727;-78
2022/09/07 17:01:46;;;;;;;1999.90;999.90;;;26.10;95.70;;;;;;6652250;88;20194;-78
2022/09/07 17:11:46;;;;;;;1999.90;999.90;;;25.80;95.80;;;;;;6655827;88;20184;-80
2022/09/07 17:21:48;;;;;;;1999.90;999.90;;;25.40;95.80;;;;;;6652676;88;20237;-78
2022/09/07 17:31:49;;;;;;;1999.90;999.90;;;24.90;97.70;;;;;;6643949;89;20604;-78
2022/09/07 17:41:53;;;;;;;1999.90;999.90;;;24.50;98.10;;;;;;6651517;88;20225;-78
2022/09/07 17:51:55;;;;;;;1999.90;999.90;;;24.10;99.40;;;;;;6660070;88;20205;-78
2022/09/07 18:01:56;;;;;;;1999.90;999.90;;;24.00;99.90;;;;;;6654500;88;20197;-78
2022/09/07 18:11:56;;;;;;;1999.90;999.90;;;23.70;99.90;;;;;;6657835;88;20196;-77
2022/09/07 18:21:57;;;;;;;1999.90;999.90;;;23.60;99.90;;;;;;6643525;88;20188;-79
2022/09/07 18:31:57;;;;;;;1999.90;999.90;;;23.30;99.90;;;;;;6638908;88;20210;-80
2022/09/07 18:41:58;;;;;;;1999.90;999.90;;;23.20;99.90;;;;;;6653370;88;20354;-78
2022/09/07 18:51:59;;;;;;;1999.90;999.90;;;23.00;99.90;;;;;;6651561;89;20962;-80
2022/09/07 19:01:59;;;;;;;1999.90;999.90;;;22.80;99.90;;;;;;6656640;88;20197;-81
2022/09/07 19:12:00;;;;;;;1999.90;999.90;;;22.60;99.90;;;;;;6656821;88;20211;-80
2022/09/07 19:22:02;;;;;;;1999.90;999.90;;;22.40;99.90;;;;;;6639276;88;20192;-80
2022/09/07 19:32:10;;;;;;;1999.90;999.90;;;22.10;99.90;;;;;;6639577;88;21607;-80
2022/09/07 19:42:11;;;;;;;1999.90;999.90;;;21.80;99.90;;;;;;6649935;88;20226;-81
2022/09/07 19:52:11;;;;;;;1999.90;999.90;;;21.90;99.90;;;;;;6646750;88;20664;-80
2022/09/07 20:02:12;;;;;;;1999.90;999.90;;;21.70;99.90;;;;;;6648633;88;22014;-79
2022/09/07 20:12:12;;;;;;;1999.90;999.90;;;21.40;99.90;;;;;;6644283;89;20185;-79
2022/09/07 20:22:13;;;;;;;1999.90;999.90;;;21.30;99.90;;;;;;6652651;89;20569;-79
2022/09/07 20:32:14;;;;;;;1999.90;999.90;;;21.10;99.90;;;;;;6650383;89;20192;-80
2022/09/07 20:42:15;;;;;;;1999.90;999.90;;;21.00;99.90;;;;;;6657367;88;20196;-80
2022/09/07 20:52:15;;;;;;;1999.90;999.90;;;20.80;99.90;;;;;;6653937;89;20230;-78
2022/09/07 21:02:16;;;;;;;1999.90;999.90;;;20.70;99.90;;;;;;6643675;88;20623;-78
2022/09/07 21:12:17;;;;;;;1999.90;999.90;;;20.50;99.90;;;;;;6647159;88;20215;-78
2022/09/07 21:22:18;;;;;;;1999.90;999.90;;;20.20;99.90;;;;;;6649698;89;20782;-79
2022/09/07 21:32:18;;;;;;;1999.90;999.90;;;20.20;99.90;;;;;;6643373;88;20236;-78
2022/09/07 21:42:19;;;;;;;1999.90;999.90;;;20.10;99.90;;;;;;6635905;89;20315;-80
2022/09/07 21:52:19;;;;;;;1999.90;999.90;;;20.00;99.90;;;;;;6635873;88;20695;-78
2022/09/07 22:02:20;;;;;;;1999.90;999.90;;;19.50;99.90;;;;;;6647294;88;20220;-78
2022/09/07 22:12:20;;;;;;;1999.90;999.90;;;19.50;99.90;;;;;;6718425;88;20344;-78
2022/09/07 22:22:21;;;;;;;1999.90;999.90;;;19.60;99.90;;;;;;6718694;88;20339;-80
2022/09/07 22:32:21;;;;;;;1999.90;999.90;;;19.50;99.90;;;;;;6719218;88;20212;-79
2022/09/07 22:42:22;;;;;;;1999.90;999.90;;;19.50;99.90;;;;;;6719842;88;20192;-78
2022/09/07 22:52:23;;;;;;;1999.90;999.90;;;19.40;99.90;;;;;;6719790;87;20208;-78
2022/09/07 23:02:23;;;;;;;1999.90;999.90;;;19.40;99.90;;;;;;6720002;88;20280;-78
2022/09/07 23:12:24;;;;;;;1999.90;999.90;;;19.20;99.90;;;;;;6720010;88;20616;-79
2022/09/07 23:22:24;;;;;;;1999.90;999.90;;;19.10;99.90;;;;;;6719727;88;20180;-78
2022/09/07 23:32:25;;;;;;;1999.90;999.90;;;19.10;99.90;;;;;;6719808;88;20193;-79
2022/09/07 23:42:25;;;;;;;1999.90;999.90;;;19.30;99.90;;;;;;6719559;88;20252;-80
2022/09/07 23:52:26;;;;;;;1999.90;999.90;;;19.40;99.90;;;;;;6719386;88;20200;-79
